sensor_id;sensor_type;location;lat;lon;timestamp;P1;durP1;ratioP1;P2;durP2;ratioP2
8333;SDS011;4204;43.004;23.052;2023-03-20T00:00:06;6.90;;;4.20;;
8333;SDS011;4204;43.004;23.052;2023-03-20T00:02:35;5.80;;;4.07;;
8333;SDS011;4204;43.004;23.052;2023-03-20T00:05:13;5.73;;;3.53;;
8333;SDS011;4204;43.004;23.052;2023-03-20T00:07:42;6.00;;;3.83;;
8333;SDS011;4204;43.004;23.052;2023-03-20T00:10:09;6.43;;;3.90;;
8333;SDS011;4204;43.004;23.052;2023-03-20T00:12:37;5.73;;;3.57;;
8333;SDS011;4204;43.004;23.052;2023-03-20T00:15:09;5.97;;;3.97;;
8333;SDS011;4204;43.004;23.052;2023-03-20T00:17:41;4.53;;;3.40;;
8333;SDS011;4204;43.004;23.052;2023-03-20T00:20:14;4.63;;;3.70;;
8333;SDS011;4204;43.004;23.052;2023-03-20T00:22:42;5.57;;;3.60;;
8333;SDS011;4204;43.004;23.052;2023-03-20T00:25:11;5.70;;;3.43;;
8333;SDS011;4204;43.004;23.052;2023-03-20T00:27:39;6.37;;;4.03;;
8333;SDS011;4204;43.004;23.052;2023-03-20T00:30:13;5.53;;;3.80;;
8333;SDS011;4204;43.004;23.052;2023-03-20T00:32:43;7.30;;;4.27;;
8333;SDS011;4204;43.004;23.052;2023-03-20T00:35:17;5.47;;;3.77;;
8333;SDS011;4204;43.004;23.052;2023-03-20T00:37:46;4.33;;;3.60;;
8333;SDS011;4204;43.004;23.052;2023-03-20T00:40:14;5.40;;;3.77;;
8333;SDS011;4204;43.004;23.052;2023-03-20T00:42:42;5.40;;;3.67;;
8333;SDS011;4204;43.004;23.052;2023-03-20T00:45:11;6.30;;;4.00;;
8333;SDS011;4204;43.004;23.052;2023-03-20T00:47:39;5.67;;;3.77;;
8333;SDS011;4204;43.004;23.052;2023-03-20T00:50:13;5.27;;;4.07;;
8333;SDS011;4204;43.004;23.052;2023-03-20T00:52:42;5.40;;;3.57;;
8333;SDS011;4204;43.004;23.052;2023-03-20T00:55:11;6.20;;;3.97;;
8333;SDS011;4204;43.004;23.052;2023-03-20T00:57:39;5.57;;;3.47;;
8333;SDS011;4204;43.004;23.052;2023-03-20T01:00:12;4.17;;;3.27;;
8333;SDS011;4204;43.004;23.052;2023-03-20T01:02:46;4.30;;;3.40;;
8333;SDS011;4204;43.004;23.052;2023-03-20T01:05:14;4.43;;;3.43;;
8333;SDS011;4204;43.004;23.052;2023-03-20T01:07:43;4.80;;;3.10;;
8333;SDS011;4204;43.004;23.052;2023-03-20T01:10:11;4.60;;;3.23;;
8333;SDS011;4204;43.004;23.052;2023-03-20T01:12:40;4.87;;;3.03;;
8333;SDS011;4204;43.004;23.052;2023-03-20T01:15:17;5.57;;;3.03;;
8333;SDS011;4204;43.004;23.052;2023-03-20T01:17:46;4.07;;;3.07;;
8333;SDS011;4204;43.004;23.052;2023-03-20T01:20:15;4.57;;;3.30;;
8333;SDS011;4204;43.004;23.052;2023-03-20T01:22:45;6.40;;;3.40;;
8333;SDS011;4204;43.004;23.052;2023-03-20T01:25:12;4.30;;;2.93;;
8333;SDS011;4204;43.004;23.052;2023-03-20T01:27:41;4.87;;;3.00;;
8333;SDS011;4204;43.004;23.052;2023-03-20T01:30:14;5.03;;;3.10;;
8333;SDS011;4204;43.004;23.052;2023-03-20T01:32:42;7.60;;;3.30;;
8333;SDS011;4204;43.004;23.052;2023-03-20T01:35:13;4.90;;;3.33;;
8333;SDS011;4204;43.004;23.052;2023-03-20T01:37:40;3.83;;;3.10;;
8333;SDS011;4204;43.004;23.052;2023-03-20T01:40:15;5.53;;;4.37;;
8333;SDS011;4204;43.004;23.052;2023-03-20T01:42:46;5.70;;;3.80;;
8333;SDS011;4204;43.004;23.052;2023-03-20T01:45:14;4.40;;;3.10;;
8333;SDS011;4204;43.004;23.052;2023-03-20T01:47:43;6.63;;;3.33;;
8333;SDS011;4204;43.004;23.052;2023-03-20T01:50:21;3.80;;;3.17;;
8333;SDS011;4204;43.004;23.052;2023-03-20T01:52:54;4.60;;;3.23;;
8333;SDS011;4204;43.004;23.052;2023-03-20T01:55:24;4.33;;;3.30;;
8333;SDS011;4204;43.004;23.052;2023-03-20T01:57:58;4.97;;;3.37;;
8333;SDS011;4204;43.004;23.052;2023-03-20T02:00:26;4.67;;;3.43;;
8333;SDS011;4204;43.004;23.052;2023-03-20T02:02:54;5.03;;;3.27;;
8333;SDS011;4204;43.004;23.052;2023-03-20T02:05:42;3.83;;;3.37;;
8333;SDS011;4204;43.004;23.052;2023-03-20T02:08:15;5.87;;;4.37;;
8333;SDS011;4204;43.004;23.052;2023-03-20T02:10:45;9.77;;;4.83;;
8333;SDS011;4204;43.004;23.052;2023-03-20T02:13:32;8.03;;;4.77;;
8333;SDS011;4204;43.004;23.052;2023-03-20T02:16:02;6.27;;;3.97;;
8333;SDS011;4204;43.004;23.052;2023-03-20T02:18:49;8.07;;;5.67;;
8333;SDS011;4204;43.004;23.052;2023-03-20T02:24:18;10.10;;;5.43;;
8333;SDS011;4204;43.004;23.052;2023-03-20T02:26:53;7.87;;;5.23;;
8333;SDS011;4204;43.004;23.052;2023-03-20T02:32:22;5.57;;;4.33;;
8333;SDS011;4204;43.004;23.052;2023-03-20T02:37:58;6.93;;;4.60;;
8333;SDS011;4204;43.004;23.052;2023-03-20T02:40:31;6.00;;;4.07;;
8333;SDS011;4204;43.004;23.052;2023-03-20T02:43:01;5.43;;;3.83;;
8333;SDS011;4204;43.004;23.052;2023-03-20T02:45:32;12.10;;;6.53;;
8333;SDS011;4204;43.004;23.052;2023-03-20T02:48:18;10.13;;;5.17;;
8333;SDS011;4204;43.004;23.052;2023-03-20T02:50:49;9.60;;;5.20;;
8333;SDS011;4204;43.004;23.052;2023-03-20T02:53:21;13.27;;;6.97;;
8333;SDS011;4204;43.004;23.052;2023-03-20T02:55:54;11.07;;;5.07;;
8333;SDS011;4204;43.004;23.052;2023-03-20T02:58:25;5.40;;;4.13;;
8333;SDS011;4204;43.004;23.052;2023-03-20T03:00:56;6.77;;;4.40;;
8333;SDS011;4204;43.004;23.052;2023-03-20T03:03:31;9.50;;;5.30;;
8333;SDS011;4204;43.004;23.052;2023-03-20T03:06:02;6.37;;;4.03;;
8333;SDS011;4204;43.004;23.052;2023-03-20T03:08:33;7.03;;;4.50;;
8333;SDS011;4204;43.004;23.052;2023-03-20T03:11:05;8.23;;;5.67;;
8333;SDS011;4204;43.004;23.052;2023-03-20T03:13:35;18.03;;;10.43;;
8333;SDS011;4204;43.004;23.052;2023-03-20T03:16:04;17.73;;;10.63;;
8333;SDS011;4204;43.004;23.052;2023-03-20T03:18:35;15.40;;;9.77;;
8333;SDS011;4204;43.004;23.052;2023-03-20T03:21:04;13.10;;;7.73;;
8333;SDS011;4204;43.004;23.052;2023-03-20T03:23:39;10.23;;;7.60;;
8333;SDS011;4204;43.004;23.052;2023-03-20T03:26:10;6.73;;;4.60;;
8333;SDS011;4204;43.004;23.052;2023-03-20T03:28:39;9.07;;;4.90;;
8333;SDS011;4204;43.004;23.052;2023-03-20T03:31:10;5.97;;;5.10;;
8333;SDS011;4204;43.004;23.052;2023-03-20T03:33:39;6.47;;;4.20;;
8333;SDS011;4204;43.004;23.052;2023-03-20T03:36:09;9.60;;;4.63;;
8333;SDS011;4204;43.004;23.052;2023-03-20T03:38:43;8.53;;;4.40;;
8333;SDS011;4204;43.004;23.052;2023-03-20T03:41:17;6.20;;;4.30;;
8333;SDS011;4204;43.004;23.052;2023-03-20T03:43:49;7.00;;;3.90;;
8333;SDS011;4204;43.004;23.052;2023-03-20T03:46:19;9.73;;;5.93;;
8333;SDS011;4204;43.004;23.052;2023-03-20T03:48:52;13.93;;;8.77;;
8333;SDS011;4204;43.004;23.052;2023-03-20T03:51:22;14.27;;;7.37;;
8333;SDS011;4204;43.004;23.052;2023-03-20T03:54:04;12.00;;;6.40;;
8333;SDS011;4204;43.004;23.052;2023-03-20T03:56:33;18.63;;;9.40;;
8333;SDS011;4204;43.004;23.052;2023-03-20T03:59:02;11.27;;;7.57;;
8333;SDS011;4204;43.004;23.052;2023-03-20T04:01:31;8.27;;;5.53;;
8333;SDS011;4204;43.004;23.052;2023-03-20T04:04:02;5.03;;;3.77;;
8333;SDS011;4204;43.004;23.052;2023-03-20T04:06:30;8.30;;;5.10;;
8333;SDS011;4204;43.004;23.052;2023-03-20T04:08:58;7.60;;;4.80;;
8333;SDS011;4204;43.004;23.052;2023-03-20T04:11:27;10.10;;;6.73;;
8333;SDS011;4204;43.004;23.052;2023-03-20T04:13:54;7.57;;;5.20;;
8333;SDS011;4204;43.004;23.052;2023-03-20T04:16:23;8.87;;;5.53;;
8333;SDS011;4204;43.004;23.052;2023-03-20T04:18:50;8.47;;;5.10;;
8333;SDS011;4204;43.004;23.052;2023-03-20T04:21:18;6.73;;;4.50;;
8333;SDS011;4204;43.004;23.052;2023-03-20T04:23:47;6.87;;;4.10;;
8333;SDS011;4204;43.004;23.052;2023-03-20T04:26:15;6.93;;;4.43;;
8333;SDS011;4204;43.004;23.052;2023-03-20T04:28:44;9.43;;;5.00;;
8333;SDS011;4204;43.004;23.052;2023-03-20T04:31:37;10.07;;;5.37;;
8333;SDS011;4204;43.004;23.052;2023-03-20T04:34:16;8.17;;;4.83;;
8333;SDS011;4204;43.004;23.052;2023-03-20T04:37:04;8.17;;;4.97;;
8333;SDS011;4204;43.004;23.052;2023-03-20T04:39:48;11.80;;;6.80;;
8333;SDS011;4204;43.004;23.052;2023-03-20T04:42:16;10.37;;;5.77;;
8333;SDS011;4204;43.004;23.052;2023-03-20T04:44:46;8.33;;;5.40;;
8333;SDS011;4204;43.004;23.052;2023-03-20T04:47:14;8.37;;;4.63;;
8333;SDS011;4204;43.004;23.052;2023-03-20T04:49:42;8.60;;;5.37;;
8333;SDS011;4204;43.004;23.052;2023-03-20T04:52:10;8.33;;;4.93;;
8333;SDS011;4204;43.004;23.052;2023-03-20T04:54:40;9.77;;;5.87;;
8333;SDS011;4204;43.004;23.052;2023-03-20T04:57:08;9.33;;;6.40;;
8333;SDS011;4204;43.004;23.052;2023-03-20T04:59:37;14.37;;;8.67;;
8333;SDS011;4204;43.004;23.052;2023-03-20T05:02:07;10.67;;;6.30;;
8333;SDS011;4204;43.004;23.052;2023-03-20T05:04:34;15.33;;;7.43;;
8333;SDS011;4204;43.004;23.052;2023-03-20T05:07:02;9.17;;;6.27;;
8333;SDS011;4204;43.004;23.052;2023-03-20T05:09:38;8.10;;;4.70;;
8333;SDS011;4204;43.004;23.052;2023-03-20T05:12:07;6.47;;;4.07;;
8333;SDS011;4204;43.004;23.052;2023-03-20T05:14:58;5.73;;;3.90;;
8333;SDS011;4204;43.004;23.052;2023-03-20T05:18:05;7.57;;;4.03;;
8333;SDS011;4204;43.004;23.052;2023-03-20T05:21:11;4.90;;;3.60;;
8333;SDS011;4204;43.004;23.052;2023-03-20T05:24:17;5.80;;;3.33;;
8333;SDS011;4204;43.004;23.052;2023-03-20T05:27:12;4.00;;;3.20;;
8333;SDS011;4204;43.004;23.052;2023-03-20T05:30:00;4.33;;;3.03;;
8333;SDS011;4204;43.004;23.052;2023-03-20T05:32:55;152.23;;;12.23;;
8333;SDS011;4204;43.004;23.052;2023-03-20T05:35:27;6.63;;;3.93;;
8333;SDS011;4204;43.004;23.052;2023-03-20T05:38:02;8.10;;;4.03;;
8333;SDS011;4204;43.004;23.052;2023-03-20T05:41:05;5.77;;;4.23;;
8333;SDS011;4204;43.004;23.052;2023-03-20T05:43:43;7.13;;;4.90;;
8333;SDS011;4204;43.004;23.052;2023-03-20T05:46:30;6.47;;;4.00;;
8333;SDS011;4204;43.004;23.052;2023-03-20T05:49:13;7.40;;;4.60;;
8333;SDS011;4204;43.004;23.052;2023-03-20T05:52:00;7.30;;;4.27;;
8333;SDS011;4204;43.004;23.052;2023-03-20T05:54:43;4.70;;;3.50;;
8333;SDS011;4204;43.004;23.052;2023-03-20T05:57:24;10.00;;;3.93;;
8333;SDS011;4204;43.004;23.052;2023-03-20T05:59:52;6.43;;;4.27;;
8333;SDS011;4204;43.004;23.052;2023-03-20T06:02:38;5.80;;;4.30;;
8333;SDS011;4204;43.004;23.052;2023-03-20T06:05:26;8.47;;;4.80;;
8333;SDS011;4204;43.004;23.052;2023-03-20T06:07:55;7.20;;;4.83;;
8333;SDS011;4204;43.004;23.052;2023-03-20T06:10:23;9.27;;;5.87;;
8333;SDS011;4204;43.004;23.052;2023-03-20T06:12:52;12.20;;;8.43;;
8333;SDS011;4204;43.004;23.052;2023-03-20T06:15:24;23.83;;;10.07;;
8333;SDS011;4204;43.004;23.052;2023-03-20T06:17:58;19.30;;;12.63;;
8333;SDS011;4204;43.004;23.052;2023-03-20T06:20:26;17.77;;;13.63;;
8333;SDS011;4204;43.004;23.052;2023-03-20T06:22:55;17.77;;;12.57;;
8333;SDS011;4204;43.004;23.052;2023-03-20T06:25:24;18.40;;;11.53;;
8333;SDS011;4204;43.004;23.052;2023-03-20T06:27:52;21.03;;;13.83;;
8333;SDS011;4204;43.004;23.052;2023-03-20T06:30:20;19.90;;;13.23;;
8333;SDS011;4204;43.004;23.052;2023-03-20T06:32:49;23.03;;;12.73;;
8333;SDS011;4204;43.004;23.052;2023-03-20T06:35:18;22.20;;;13.17;;
8333;SDS011;4204;43.004;23.052;2023-03-20T06:37:48;22.97;;;12.93;;
8333;SDS011;4204;43.004;23.052;2023-03-20T06:40:22;22.80;;;14.33;;
8333;SDS011;4204;43.004;23.052;2023-03-20T06:42:50;24.77;;;15.30;;
8333;SDS011;4204;43.004;23.052;2023-03-20T06:45:18;27.30;;;14.87;;
8333;SDS011;4204;43.004;23.052;2023-03-20T06:47:52;31.33;;;18.27;;
8333;SDS011;4204;43.004;23.052;2023-03-20T06:50:19;32.73;;;16.27;;
8333;SDS011;4204;43.004;23.052;2023-03-20T06:52:47;28.17;;;16.97;;
8333;SDS011;4204;43.004;23.052;2023-03-20T06:55:32;25.63;;;15.97;;
8333;SDS011;4204;43.004;23.052;2023-03-20T06:58:00;19.07;;;11.77;;
8333;SDS011;4204;43.004;23.052;2023-03-20T07:00:29;14.50;;;9.47;;
8333;SDS011;4204;43.004;23.052;2023-03-20T07:03:01;14.00;;;9.97;;
8333;SDS011;4204;43.004;23.052;2023-03-20T07:05:29;12.77;;;9.53;;
8333;SDS011;4204;43.004;23.052;2023-03-20T07:07:58;14.83;;;9.10;;
8333;SDS011;4204;43.004;23.052;2023-03-20T07:10:26;15.53;;;9.47;;
8333;SDS011;4204;43.004;23.052;2023-03-20T07:12:56;18.87;;;9.27;;
8333;SDS011;4204;43.004;23.052;2023-03-20T07:15:24;14.50;;;8.80;;
8333;SDS011;4204;43.004;23.052;2023-03-20T07:17:56;13.47;;;9.30;;
8333;SDS011;4204;43.004;23.052;2023-03-20T07:20:26;16.37;;;9.17;;
8333;SDS011;4204;43.004;23.052;2023-03-20T07:22:54;13.93;;;9.50;;
8333;SDS011;4204;43.004;23.052;2023-03-20T07:25:26;15.03;;;8.67;;
8333;SDS011;4204;43.004;23.052;2023-03-20T07:27:57;13.30;;;8.90;;
8333;SDS011;4204;43.004;23.052;2023-03-20T07:30:26;15.53;;;8.93;;
8333;SDS011;4204;43.004;23.052;2023-03-20T07:32:54;15.40;;;8.73;;
8333;SDS011;4204;43.004;23.052;2023-03-20T07:35:27;11.53;;;8.40;;
8333;SDS011;4204;43.004;23.052;2023-03-20T07:37:55;9.90;;;7.57;;
8333;SDS011;4204;43.004;23.052;2023-03-20T07:40:24;8.40;;;7.00;;
8333;SDS011;4204;43.004;23.052;2023-03-20T07:43:00;11.70;;;6.67;;
8333;SDS011;4204;43.004;23.052;2023-03-20T07:45:54;9.53;;;7.40;;
8333;SDS011;4204;43.004;23.052;2023-03-20T07:48:22;9.30;;;6.53;;
8333;SDS011;4204;43.004;23.052;2023-03-20T07:50:50;8.00;;;6.43;;
8333;SDS011;4204;43.004;23.052;2023-03-20T07:53:18;8.50;;;5.10;;
8333;SDS011;4204;43.004;23.052;2023-03-20T07:55:48;8.03;;;4.97;;
8333;SDS011;4204;43.004;23.052;2023-03-20T07:58:17;9.10;;;5.10;;
8333;SDS011;4204;43.004;23.052;2023-03-20T08:00:45;7.97;;;4.53;;
8333;SDS011;4204;43.004;23.052;2023-03-20T08:03:12;7.90;;;5.07;;
8333;SDS011;4204;43.004;23.052;2023-03-20T08:05:40;7.93;;;4.50;;
8333;SDS011;4204;43.004;23.052;2023-03-20T08:08:08;8.67;;;4.30;;
8333;SDS011;4204;43.004;23.052;2023-03-20T08:10:35;6.70;;;4.27;;
8333;SDS011;4204;43.004;23.052;2023-03-20T08:13:03;5.57;;;4.30;;
8333;SDS011;4204;43.004;23.052;2023-03-20T08:15:32;7.53;;;4.27;;
8333;SDS011;4204;43.004;23.052;2023-03-20T08:18:00;6.03;;;3.80;;
8333;SDS011;4204;43.004;23.052;2023-03-20T08:20:28;6.77;;;3.90;;
8333;SDS011;4204;43.004;23.052;2023-03-20T08:22:57;4.43;;;3.80;;
8333;SDS011;4204;43.004;23.052;2023-03-20T08:25:24;6.37;;;4.20;;
8333;SDS011;4204;43.004;23.052;2023-03-20T08:27:54;5.33;;;3.97;;
8333;SDS011;4204;43.004;23.052;2023-03-20T08:30:22;6.20;;;4.20;;
8333;SDS011;4204;43.004;23.052;2023-03-20T08:32:51;6.03;;;3.87;;
8333;SDS011;4204;43.004;23.052;2023-03-20T08:35:19;5.07;;;4.07;;
8333;SDS011;4204;43.004;23.052;2023-03-20T08:37:47;6.27;;;3.90;;
8333;SDS011;4204;43.004;23.052;2023-03-20T08:40:16;4.97;;;3.80;;
8333;SDS011;4204;43.004;23.052;2023-03-20T08:42:44;8.77;;;4.07;;
8333;SDS011;4204;43.004;23.052;2023-03-20T08:45:11;8.03;;;3.80;;
8333;SDS011;4204;43.004;23.052;2023-03-20T08:47:39;6.20;;;3.50;;
8333;SDS011;4204;43.004;23.052;2023-03-20T08:50:09;5.63;;;3.80;;
8333;SDS011;4204;43.004;23.052;2023-03-20T08:52:37;4.87;;;3.50;;
8333;SDS011;4204;43.004;23.052;2023-03-20T08:55:09;4.47;;;3.20;;
8333;SDS011;4204;43.004;23.052;2023-03-20T08:57:38;4.93;;;3.53;;
8333;SDS011;4204;43.004;23.052;2023-03-20T09:00:07;5.47;;;3.60;;
8333;SDS011;4204;43.004;23.052;2023-03-20T09:02:35;4.30;;;3.27;;
8333;SDS011;4204;43.004;23.052;2023-03-20T09:05:03;4.63;;;3.70;;
8333;SDS011;4204;43.004;23.052;2023-03-20T09:07:32;5.20;;;3.50;;
8333;SDS011;4204;43.004;23.052;2023-03-20T09:10:00;5.87;;;3.60;;
8333;SDS011;4204;43.004;23.052;2023-03-20T09:12:28;5.13;;;3.60;;
8333;SDS011;4204;43.004;23.052;2023-03-20T09:14:56;8.70;;;4.40;;
8333;SDS011;4204;43.004;23.052;2023-03-20T09:17:24;7.10;;;4.77;;
8333;SDS011;4204;43.004;23.052;2023-03-20T09:19:52;4.00;;;3.50;;
8333;SDS011;4204;43.004;23.052;2023-03-20T09:22:20;4.77;;;3.67;;
8333;SDS011;4204;43.004;23.052;2023-03-20T09:24:49;5.37;;;4.10;;
8333;SDS011;4204;43.004;23.052;2023-03-20T09:27:16;8.77;;;4.17;;
8333;SDS011;4204;43.004;23.052;2023-03-20T09:29:44;6.20;;;4.10;;
8333;SDS011;4204;43.004;23.052;2023-03-20T09:32:12;5.20;;;3.63;;
8333;SDS011;4204;43.004;23.052;2023-03-20T09:34:39;5.17;;;4.10;;
8333;SDS011;4204;43.004;23.052;2023-03-20T09:37:07;5.87;;;4.13;;
8333;SDS011;4204;43.004;23.052;2023-03-20T09:39:36;6.83;;;4.13;;
8333;SDS011;4204;43.004;23.052;2023-03-20T09:42:08;5.00;;;3.90;;
8333;SDS011;4204;43.004;23.052;2023-03-20T09:44:43;4.10;;;3.37;;
8333;SDS011;4204;43.004;23.052;2023-03-20T09:47:13;5.10;;;3.50;;
8333;SDS011;4204;43.004;23.052;2023-03-20T09:49:46;5.13;;;3.80;;
8333;SDS011;4204;43.004;23.052;2023-03-20T09:52:17;5.30;;;4.00;;
8333;SDS011;4204;43.004;23.052;2023-03-20T09:54:48;4.60;;;4.03;;
8333;SDS011;4204;43.004;23.052;2023-03-20T09:57:19;4.80;;;3.70;;
8333;SDS011;4204;43.004;23.052;2023-03-20T09:59:48;5.50;;;3.93;;
8333;SDS011;4204;43.004;23.052;2023-03-20T10:02:18;6.67;;;4.20;;
8333;SDS011;4204;43.004;23.052;2023-03-20T10:04:50;7.43;;;4.13;;
8333;SDS011;4204;43.004;23.052;2023-03-20T10:07:19;6.60;;;3.80;;
8333;SDS011;4204;43.004;23.052;2023-03-20T10:09:47;6.07;;;3.63;;
8333;SDS011;4204;43.004;23.052;2023-03-20T10:12:29;6.17;;;3.97;;
8333;SDS011;4204;43.004;23.052;2023-03-20T10:15:04;5.43;;;3.97;;
8333;SDS011;4204;43.004;23.052;2023-03-20T10:17:38;6.03;;;4.17;;
8333;SDS011;4204;43.004;23.052;2023-03-20T10:20:10;6.20;;;3.90;;
8333;SDS011;4204;43.004;23.052;2023-03-20T10:22:39;5.20;;;4.13;;
8333;SDS011;4204;43.004;23.052;2023-03-20T10:25:15;5.77;;;3.83;;
8333;SDS011;4204;43.004;23.052;2023-03-20T10:27:48;6.17;;;3.90;;
8333;SDS011;4204;43.004;23.052;2023-03-20T10:30:22;4.60;;;4.10;;
8333;SDS011;4204;43.004;23.052;2023-03-20T10:32:55;6.07;;;3.80;;
8333;SDS011;4204;43.004;23.052;2023-03-20T10:35:25;4.43;;;3.33;;
8333;SDS011;4204;43.004;23.052;2023-03-20T10:37:59;5.10;;;3.23;;
8333;SDS011;4204;43.004;23.052;2023-03-20T10:40:31;8.80;;;3.80;;
8333;SDS011;4204;43.004;23.052;2023-03-20T10:43:03;3.87;;;3.47;;
8333;SDS011;4204;43.004;23.052;2023-03-20T10:45:36;7.70;;;4.00;;
8333;SDS011;4204;43.004;23.052;2023-03-20T10:48:06;5.13;;;3.73;;
8333;SDS011;4204;43.004;23.052;2023-03-20T10:50:39;5.50;;;3.50;;
8333;SDS011;4204;43.004;23.052;2023-03-20T10:53:09;5.77;;;3.90;;
8333;SDS011;4204;43.004;23.052;2023-03-20T10:55:44;3.93;;;3.50;;
8333;SDS011;4204;43.004;23.052;2023-03-20T10:58:14;3.60;;;3.07;;
8333;SDS011;4204;43.004;23.052;2023-03-20T11:00:44;4.67;;;3.73;;
8333;SDS011;4204;43.004;23.052;2023-03-20T11:03:16;5.70;;;3.50;;
8333;SDS011;4204;43.004;23.052;2023-03-20T11:05:47;5.50;;;3.60;;
8333;SDS011;4204;43.004;23.052;2023-03-20T11:08:15;6.67;;;3.30;;
8333;SDS011;4204;43.004;23.052;2023-03-20T11:10:42;4.60;;;3.33;;
8333;SDS011;4204;43.004;23.052;2023-03-20T11:13:18;6.10;;;4.17;;
8333;SDS011;4204;43.004;23.052;2023-03-20T11:15:50;4.23;;;3.43;;
8333;SDS011;4204;43.004;23.052;2023-03-20T11:18:18;5.43;;;3.27;;
8333;SDS011;4204;43.004;23.052;2023-03-20T11:20:46;4.43;;;3.10;;
8333;SDS011;4204;43.004;23.052;2023-03-20T11:23:16;4.20;;;2.90;;
8333;SDS011;4204;43.004;23.052;2023-03-20T11:25:46;4.23;;;3.27;;
8333;SDS011;4204;43.004;23.052;2023-03-20T11:28:23;4.73;;;3.23;;
8333;SDS011;4204;43.004;23.052;2023-03-20T11:30:57;6.30;;;4.17;;
8333;SDS011;4204;43.004;23.052;2023-03-20T11:33:25;6.50;;;3.30;;
8333;SDS011;4204;43.004;23.052;2023-03-20T11:35:54;3.77;;;3.30;;
8333;SDS011;4204;43.004;23.052;2023-03-20T11:38:22;5.57;;;3.07;;
8333;SDS011;4204;43.004;23.052;2023-03-20T11:40:50;4.40;;;2.87;;
8333;SDS011;4204;43.004;23.052;2023-03-20T11:43:19;3.53;;;3.23;;
8333;SDS011;4204;43.004;23.052;2023-03-20T11:45:49;5.33;;;3.00;;
8333;SDS011;4204;43.004;23.052;2023-03-20T11:48:21;4.77;;;3.30;;
8333;SDS011;4204;43.004;23.052;2023-03-20T11:50:51;3.77;;;3.10;;
8333;SDS011;4204;43.004;23.052;2023-03-20T11:53:24;5.03;;;3.60;;
8333;SDS011;4204;43.004;23.052;2023-03-20T11:56:00;3.83;;;3.17;;
8333;SDS011;4204;43.004;23.052;2023-03-20T11:58:29;4.60;;;3.50;;
8333;SDS011;4204;43.004;23.052;2023-03-20T12:00:59;3.50;;;3.00;;
8333;SDS011;4204;43.004;23.052;2023-03-20T12:03:39;5.17;;;3.60;;
8333;SDS011;4204;43.004;23.052;2023-03-20T12:06:14;5.70;;;3.40;;
8333;SDS011;4204;43.004;23.052;2023-03-20T12:08:42;3.37;;;2.90;;
8333;SDS011;4204;43.004;23.052;2023-03-20T12:13:54;3.70;;;2.90;;
8333;SDS011;4204;43.004;23.052;2023-03-20T12:16:26;3.93;;;3.13;;
8333;SDS011;4204;43.004;23.052;2023-03-20T12:18:56;3.83;;;3.00;;
8333;SDS011;4204;43.004;23.052;2023-03-20T12:21:28;3.27;;;2.97;;
8333;SDS011;4204;43.004;23.052;2023-03-20T12:23:58;3.23;;;2.90;;
8333;SDS011;4204;43.004;23.052;2023-03-20T12:26:30;4.43;;;3.10;;
8333;SDS011;4204;43.004;23.052;2023-03-20T12:28:59;4.67;;;3.33;;
8333;SDS011;4204;43.004;23.052;2023-03-20T12:31:31;3.27;;;2.97;;
8333;SDS011;4204;43.004;23.052;2023-03-20T12:34:00;3.10;;;2.70;;
8333;SDS011;4204;43.004;23.052;2023-03-20T12:36:31;5.20;;;3.07;;
8333;SDS011;4204;43.004;23.052;2023-03-20T12:39:00;3.17;;;2.77;;
8333;SDS011;4204;43.004;23.052;2023-03-20T12:41:29;3.43;;;2.90;;
8333;SDS011;4204;43.004;23.052;2023-03-20T12:44:12;3.10;;;2.80;;
8333;SDS011;4204;43.004;23.052;2023-03-20T12:46:45;5.17;;;3.20;;
8333;SDS011;4204;43.004;23.052;2023-03-20T12:49:18;4.97;;;2.97;;
8333;SDS011;4204;43.004;23.052;2023-03-20T12:51:51;4.13;;;3.57;;
8333;SDS011;4204;43.004;23.052;2023-03-20T12:54:26;5.43;;;3.50;;
8333;SDS011;4204;43.004;23.052;2023-03-20T12:57:00;3.87;;;3.03;;
8333;SDS011;4204;43.004;23.052;2023-03-20T12:59:31;3.10;;;2.80;;
8333;SDS011;4204;43.004;23.052;2023-03-20T13:02:08;3.33;;;3.03;;
8333;SDS011;4204;43.004;23.052;2023-03-20T13:04:41;3.67;;;3.10;;
8333;SDS011;4204;43.004;23.052;2023-03-20T13:07:16;3.83;;;3.43;;
8333;SDS011;4204;43.004;23.052;2023-03-20T13:09:50;3.50;;;3.20;;
8333;SDS011;4204;43.004;23.052;2023-03-20T13:12:25;3.70;;;3.20;;
8333;SDS011;4204;43.004;23.052;2023-03-20T13:14:59;3.60;;;3.00;;
8333;SDS011;4204;43.004;23.052;2023-03-20T13:17:31;4.40;;;3.20;;
8333;SDS011;4204;43.004;23.052;2023-03-20T13:20:11;4.07;;;3.20;;
8333;SDS011;4204;43.004;23.052;2023-03-20T13:22:46;4.50;;;3.40;;
8333;SDS011;4204;43.004;23.052;2023-03-20T13:25:19;4.63;;;3.67;;
8333;SDS011;4204;43.004;23.052;2023-03-20T13:27:52;5.03;;;3.53;;
8333;SDS011;4204;43.004;23.052;2023-03-20T13:30:24;5.87;;;3.27;;
8333;SDS011;4204;43.004;23.052;2023-03-20T13:32:56;6.93;;;3.57;;
8333;SDS011;4204;43.004;23.052;2023-03-20T13:35:29;4.03;;;3.40;;
8333;SDS011;4204;43.004;23.052;2023-03-20T13:38:01;4.33;;;3.57;;
8333;SDS011;4204;43.004;23.052;2023-03-20T13:40:34;4.40;;;3.70;;
8333;SDS011;4204;43.004;23.052;2023-03-20T13:43:05;3.50;;;3.20;;
8333;SDS011;4204;43.004;23.052;2023-03-20T13:45:37;3.90;;;3.50;;
8333;SDS011;4204;43.004;23.052;2023-03-20T13:48:10;4.20;;;3.40;;
8333;SDS011;4204;43.004;23.052;2023-03-20T13:50:41;5.80;;;4.17;;
8333;SDS011;4204;43.004;23.052;2023-03-20T13:53:13;4.80;;;4.30;;
8333;SDS011;4204;43.004;23.052;2023-03-20T13:55:44;7.07;;;4.10;;
8333;SDS011;4204;43.004;23.052;2023-03-20T13:58:22;6.20;;;4.00;;
8333;SDS011;4204;43.004;23.052;2023-03-20T14:00:53;5.10;;;3.30;;
8333;SDS011;4204;43.004;23.052;2023-03-20T14:03:24;6.30;;;3.70;;
8333;SDS011;4204;43.004;23.052;2023-03-20T14:05:53;6.57;;;4.77;;
8333;SDS011;4204;43.004;23.052;2023-03-20T14:08:29;5.80;;;4.00;;
8333;SDS011;4204;43.004;23.052;2023-03-20T14:11:06;4.97;;;3.90;;
8333;SDS011;4204;43.004;23.052;2023-03-20T14:13:35;4.83;;;4.40;;
8333;SDS011;4204;43.004;23.052;2023-03-20T14:16:06;4.83;;;4.07;;
8333;SDS011;4204;43.004;23.052;2023-03-20T14:18:36;5.73;;;3.80;;
8333;SDS011;4204;43.004;23.052;2023-03-20T14:21:08;5.47;;;4.00;;
8333;SDS011;4204;43.004;23.052;2023-03-20T14:23:37;4.47;;;4.07;;
8333;SDS011;4204;43.004;23.052;2023-03-20T14:26:09;5.20;;;4.40;;
8333;SDS011;4204;43.004;23.052;2023-03-20T14:28:45;5.00;;;3.93;;
8333;SDS011;4204;43.004;23.052;2023-03-20T14:31:23;5.13;;;4.07;;
8333;SDS011;4204;43.004;23.052;2023-03-20T14:33:58;4.03;;;3.57;;
8333;SDS011;4204;43.004;23.052;2023-03-20T14:36:30;3.53;;;3.20;;
8333;SDS011;4204;43.004;23.052;2023-03-20T14:39:17;4.27;;;3.13;;
8333;SDS011;4204;43.004;23.052;2023-03-20T14:41:56;4.13;;;3.30;;
8333;SDS011;4204;43.004;23.052;2023-03-20T14:44:28;4.10;;;3.53;;
8333;SDS011;4204;43.004;23.052;2023-03-20T14:46:58;4.47;;;3.50;;
8333;SDS011;4204;43.004;23.052;2023-03-20T14:49:35;5.17;;;3.50;;
8333;SDS011;4204;43.004;23.052;2023-03-20T14:52:14;3.80;;;3.37;;
8333;SDS011;4204;43.004;23.052;2023-03-20T14:54:50;4.60;;;3.60;;
8333;SDS011;4204;43.004;23.052;2023-03-20T14:57:18;6.37;;;3.87;;
8333;SDS011;4204;43.004;23.052;2023-03-20T14:59:53;6.00;;;3.77;;
8333;SDS011;4204;43.004;23.052;2023-03-20T15:02:23;4.13;;;3.70;;
8333;SDS011;4204;43.004;23.052;2023-03-20T15:04:53;4.73;;;3.60;;
8333;SDS011;4204;43.004;23.052;2023-03-20T15:07:21;4.60;;;3.77;;
8333;SDS011;4204;43.004;23.052;2023-03-20T15:09:51;6.47;;;3.70;;
8333;SDS011;4204;43.004;23.052;2023-03-20T15:12:20;8.23;;;3.93;;
8333;SDS011;4204;43.004;23.052;2023-03-20T15:14:50;4.00;;;3.60;;
8333;SDS011;4204;43.004;23.052;2023-03-20T15:17:21;6.33;;;3.70;;
8333;SDS011;4204;43.004;23.052;2023-03-20T15:19:49;5.00;;;3.27;;
8333;SDS011;4204;43.004;23.052;2023-03-20T15:22:18;8.60;;;3.43;;
8333;SDS011;4204;43.004;23.052;2023-03-20T15:24:52;5.17;;;3.63;;
8333;SDS011;4204;43.004;23.052;2023-03-20T15:27:20;5.10;;;3.80;;
8333;SDS011;4204;43.004;23.052;2023-03-20T15:29:51;8.77;;;4.73;;
8333;SDS011;4204;43.004;23.052;2023-03-20T15:32:20;10.10;;;4.50;;
8333;SDS011;4204;43.004;23.052;2023-03-20T15:34:48;9.83;;;6.37;;
8333;SDS011;4204;43.004;23.052;2023-03-20T15:37:19;20.83;;;11.87;;